Royalton, Minnesota
Current Conditions -  °F | °C
As of 9:58 PM on Sunday 23 Nov 2014 (Local Time) from KLXL Reporting Station
Overcast Overcast  
Wind Chill: 23°   Ceiling: 2000
Heat Index: 32°   Visibility: 10mi
Dew Point: 27°   Wind: 12mph
Humidity: 80%   Direction: 300°WNW
Pressure: 29.4"   Gusts: 20mph
Location:  45.83°N, 94.29°W
Report Text: KLXL 240358Z AUTO 30010G17KT 10SM OVC020 00/M03 A2940 RMK AO2
Loading
Personal Weather Stations






























Interactive Weather Map New forecast layout! Learn more

10-Day Weather Forecast

Advertisements
Track Severe Weather on mobile